createdAt,value
2022-12-22T00:01:31.920Z,9.90
2022-12-22T00:04:17.176Z,10.10
2022-12-22T00:07:02.501Z,10.00
2022-12-22T00:09:47.399Z,9.90
2022-12-22T00:12:33.215Z,10.00
2022-12-22T00:15:18.606Z,10.10
2022-12-22T00:18:03.620Z,10.10
2022-12-22T00:20:48.804Z,10.00
2022-12-22T00:23:33.897Z,10.00
2022-12-22T00:26:19.263Z,10.00
2022-12-22T00:29:04.248Z,10.00
2022-12-22T00:31:49.269Z,10.00
2022-12-22T00:34:35.363Z,10.00
2022-12-22T00:37:20.595Z,10.20
2022-12-22T00:40:05.709Z,10.30
2022-12-22T00:42:50.775Z,10.30
2022-12-22T00:45:36.033Z,10.20
2022-12-22T00:48:21.557Z,10.30
2022-12-22T00:51:06.608Z,10.20
2022-12-22T00:53:51.591Z,10.10
2022-12-22T00:56:36.639Z,10.20
2022-12-22T00:59:21.748Z,10.10
2022-12-22T01:02:07.182Z,10.10
2022-12-22T01:04:52.452Z,10.20
2022-12-22T01:07:37.395Z,10.10
2022-12-22T01:10:22.420Z,10.10
2022-12-22T01:13:07.926Z,10.10
2022-12-22T01:15:52.942Z,10.00
2022-12-22T01:18:38.039Z,9.90
2022-12-22T01:21:23.197Z,9.90
2022-12-22T01:24:08.297Z,9.90
2022-12-22T01:26:53.392Z,10.00
2022-12-22T01:29:38.350Z,9.90
2022-12-22T01:32:24.020Z,9.90
2022-12-22T01:35:09.052Z,9.80
2022-12-22T01:37:54.325Z,9.80
2022-12-22T01:40:42.027Z,9.80
2022-12-22T01:43:37.819Z,9.80
2022-12-22T01:46:40.302Z,9.80
2022-12-22T01:49:51.922Z,9.80
2022-12-22T01:52:38.475Z,9.80
2022-12-22T01:55:29.186Z,9.80
2022-12-22T01:58:14.762Z,9.80
2022-12-22T02:01:00.478Z,9.80
2022-12-22T02:03:45.479Z,9.80
2022-12-22T02:06:45.356Z,9.70
2022-12-22T02:09:39.486Z,9.70
2022-12-22T02:12:47.204Z,9.70
2022-12-22T02:15:37.329Z,9.80
2022-12-22T02:18:30.567Z,9.70
2022-12-22T02:21:23.166Z,9.70
2022-12-22T02:24:11.143Z,9.70
2022-12-22T02:27:08.625Z,9.70
2022-12-22T02:30:01.741Z,9.70
2022-12-22T02:32:51.449Z,9.70
2022-12-22T02:35:36.524Z,9.70
2022-12-22T02:38:28.807Z,9.70
2022-12-22T02:41:32.843Z,9.70
2022-12-22T02:44:36.822Z,9.70
2022-12-22T02:47:26.053Z,9.70
2022-12-22T02:50:12.820Z,9.70
2022-12-22T02:52:59.299Z,9.60
2022-12-22T02:55:45.544Z,9.60
2022-12-22T02:58:32.025Z,9.60
2022-12-22T03:01:17.298Z,9.60
2022-12-22T03:04:02.394Z,9.60
2022-12-22T03:06:47.671Z,9.60
2022-12-22T03:09:32.937Z,9.70
2022-12-22T03:12:17.976Z,9.70
2022-12-22T03:15:03.060Z,9.80
2022-12-22T03:17:48.066Z,9.70
2022-12-22T03:20:33.115Z,9.80
2022-12-22T03:23:24.322Z,9.80
2022-12-22T03:25:56.984Z,9.90
2022-12-22T03:28:24.870Z,10.10
2022-12-22T03:30:58.960Z,10.10
2022-12-22T03:33:26.266Z,10.20
2022-12-22T03:35:52.807Z,10.20
2022-12-22T03:38:19.321Z,10.30
2022-12-22T03:40:46.023Z,10.30
2022-12-22T03:43:32.543Z,10.40
2022-12-22T03:46:17.755Z,10.40
2022-12-22T03:48:44.936Z,10.40
2022-12-22T03:51:11.406Z,10.40
2022-12-22T03:53:38.001Z,10.50
2022-12-22T03:56:08.029Z,10.50
2022-12-22T03:58:34.871Z,10.60
2022-12-22T04:01:05.461Z,10.50
2022-12-22T04:03:32.113Z,10.50
2022-12-22T04:05:58.880Z,10.50
2022-12-22T04:08:25.409Z,10.40
2022-12-22T04:11:10.788Z,10.50
2022-12-22T04:13:37.330Z,10.50
2022-12-22T04:16:03.854Z,10.50
2022-12-22T04:18:30.459Z,10.60
2022-12-22T04:20:56.910Z,10.60
2022-12-22T04:23:23.406Z,10.60
2022-12-22T04:25:50.059Z,10.60
2022-12-22T04:28:16.605Z,10.60
2022-12-22T04:30:43.202Z,10.70
2022-12-22T04:33:09.706Z,10.60
2022-12-22T04:35:36.222Z,10.60
2022-12-22T04:38:02.671Z,10.60
2022-12-22T04:40:29.169Z,10.70
2022-12-22T04:42:55.669Z,10.70
2022-12-22T04:45:22.142Z,10.70
2022-12-22T04:47:48.693Z,10.60
2022-12-22T04:50:15.238Z,10.60
2022-12-22T04:52:41.797Z,10.70
2022-12-22T04:55:09.180Z,10.60
2022-12-22T04:57:40.546Z,10.70
2022-12-22T05:00:08.253Z,10.70
2022-12-22T05:02:34.913Z,10.80
2022-12-22T05:05:01.471Z,10.80
2022-12-22T05:07:27.972Z,10.80
2022-12-22T05:09:54.479Z,10.80
2022-12-22T05:12:39.554Z,10.70
2022-12-22T05:15:06.436Z,10.80
2022-12-22T05:17:32.960Z,10.70
2022-12-22T05:19:59.464Z,10.60
2022-12-22T05:22:26.024Z,10.70
2022-12-22T05:24:52.511Z,10.70
2022-12-22T05:27:19.313Z,10.70
2022-12-22T05:29:45.773Z,10.70
2022-12-22T05:32:12.336Z,10.70
2022-12-22T05:34:38.773Z,10.70
2022-12-22T05:37:05.233Z,10.60
2022-12-22T05:39:31.709Z,10.70
2022-12-22T05:41:58.234Z,10.80
2022-12-22T05:44:24.763Z,10.70
2022-12-22T05:46:52.237Z,10.80
2022-12-22T05:49:19.362Z,10.70
2022-12-22T05:51:45.934Z,10.80
2022-12-22T05:54:12.529Z,10.80
2022-12-22T05:56:39.125Z,10.80
2022-12-22T05:59:05.583Z,10.80
2022-12-22T06:01:32.210Z,10.80
2022-12-22T06:04:00.561Z,10.90
2022-12-22T06:06:27.489Z,10.90
2022-12-22T06:08:54.090Z,10.90
2022-12-22T06:11:20.749Z,10.90
2022-12-22T06:13:47.244Z,10.90
2022-12-22T06:16:13.993Z,10.90
2022-12-22T06:18:40.538Z,10.90
2022-12-22T06:21:07.016Z,10.90
2022-12-22T06:23:33.554Z,11.00
2022-12-22T06:26:01.379Z,11.00
2022-12-22T06:28:28.435Z,10.90
2022-12-22T06:30:55.621Z,11.00
2022-12-22T06:33:22.426Z,11.00
2022-12-22T06:35:53.943Z,11.00
2022-12-22T06:38:24.354Z,11.00
2022-12-22T06:40:50.811Z,11.00
2022-12-22T06:43:17.291Z,11.10
2022-12-22T06:45:44.205Z,11.10
2022-12-22T06:48:11.384Z,11.00
2022-12-22T06:50:37.899Z,11.20
2022-12-22T06:53:05.006Z,11.20
2022-12-22T06:55:31.633Z,11.10
2022-12-22T06:57:58.198Z,11.20
2022-12-22T07:00:24.943Z,11.20
2022-12-22T07:02:51.635Z,11.10
2022-12-22T07:05:18.259Z,11.20
2022-12-22T07:07:44.882Z,11.30
2022-12-22T07:10:11.846Z,11.20
2022-12-22T07:12:38.488Z,11.30
2022-12-22T07:15:05.214Z,11.30
2022-12-22T07:17:31.699Z,11.30
2022-12-22T07:19:58.263Z,11.30
2022-12-22T07:22:29.977Z,11.30
2022-12-22T07:24:57.098Z,11.40
2022-12-22T07:27:23.585Z,11.50
2022-12-22T07:29:50.174Z,11.50
2022-12-22T07:32:16.660Z,11.50
2022-12-22T07:34:43.200Z,11.40
2022-12-22T07:37:09.805Z,11.40
2022-12-22T07:39:36.403Z,11.30
2022-12-22T07:42:21.459Z,11.20
2022-12-22T07:44:47.911Z,11.30
2022-12-22T07:47:14.444Z,11.20
2022-12-22T07:49:59.715Z,11.30
2022-12-22T07:52:26.824Z,11.20
2022-12-22T07:54:53.420Z,11.20
2022-12-22T07:57:19.953Z,11.10
2022-12-22T07:59:46.460Z,11.10
2022-12-22T08:02:13.216Z,11.10
2022-12-22T08:04:39.948Z,11.10
2022-12-22T08:07:06.617Z,11.10
2022-12-22T08:09:33.181Z,11.20
2022-12-22T08:11:59.780Z,11.10
2022-12-22T08:14:26.377Z,11.20
2022-12-22T08:16:53.051Z,11.10
2022-12-22T08:19:19.675Z,11.10
2022-12-22T08:21:52.491Z,11.10
2022-12-22T08:24:20.146Z,11.20
2022-12-22T08:26:48.181Z,11.10
2022-12-22T08:29:17.933Z,11.20
2022-12-22T08:31:44.757Z,11.30
2022-12-22T08:34:13.266Z,11.30
2022-12-22T08:36:41.868Z,11.30
2022-12-22T08:39:08.760Z,11.20
2022-12-22T08:41:51.114Z,11.20
2022-12-22T08:44:19.356Z,11.20
2022-12-22T08:46:46.259Z,11.30
2022-12-22T08:49:13.155Z,11.30
2022-12-22T08:51:39.704Z,11.30
2022-12-22T08:54:06.927Z,11.30
2022-12-22T08:56:33.829Z,11.30
2022-12-22T08:59:04.930Z,11.30
2022-12-22T09:01:32.854Z,11.30
2022-12-22T09:03:59.751Z,11.30
2022-12-22T09:06:27.733Z,11.30
2022-12-22T09:08:56.528Z,11.30
2022-12-22T09:11:23.701Z,11.30
2022-12-22T09:13:50.905Z,11.30
2022-12-22T09:16:17.616Z,11.30
2022-12-22T09:18:44.253Z,11.30
2022-12-22T09:21:11.152Z,11.30
2022-12-22T09:23:37.643Z,11.30
2022-12-22T09:26:08.199Z,11.30
2022-12-22T09:28:35.145Z,11.30
2022-12-22T09:31:01.675Z,11.30
2022-12-22T09:33:28.183Z,11.20
2022-12-22T09:35:54.729Z,11.20
2022-12-22T09:38:21.262Z,11.20
2022-12-22T09:40:47.831Z,11.20
2022-12-22T09:43:16.793Z,11.20
2022-12-22T09:45:43.811Z,11.20
2022-12-22T09:48:12.314Z,11.10
2022-12-22T09:50:39.215Z,11.20
2022-12-22T09:53:07.007Z,11.10
2022-12-22T09:55:40.832Z,11.10
2022-12-22T09:58:25.685Z,11.00
2022-12-22T10:01:07.463Z,11.00
2022-12-22T10:03:43.259Z,11.00
2022-12-22T10:06:09.940Z,11.00
2022-12-22T10:08:37.460Z,11.10
2022-12-22T10:11:04.434Z,11.00
2022-12-22T10:13:30.960Z,10.90
2022-12-22T10:15:57.957Z,11.00
2022-12-22T10:18:29.117Z,11.00
2022-12-22T10:21:01.728Z,11.00
2022-12-22T10:23:29.417Z,11.00
2022-12-22T10:29:02.543Z,10.90
2022-12-22T10:31:31.110Z,10.90
2022-12-22T10:34:10.254Z,10.90
2022-12-22T10:36:37.263Z,10.90
2022-12-22T10:39:05.586Z,10.90
2022-12-22T10:41:36.267Z,10.90
2022-12-22T10:44:05.757Z,10.90
2022-12-22T10:46:35.500Z,11.00
2022-12-22T10:49:28.688Z,11.00
2022-12-22T10:52:10.312Z,11.10
2022-12-22T10:54:37.097Z,11.10
2022-12-22T10:57:20.904Z,11.20
2022-12-22T10:59:51.868Z,11.20
2022-12-22T11:02:21.602Z,11.30
2022-12-22T11:04:48.634Z,11.30
2022-12-22T11:07:15.347Z,11.30
2022-12-22T11:09:41.982Z,11.30
2022-12-22T11:12:13.818Z,11.30
2022-12-22T11:14:40.826Z,11.30
2022-12-22T11:17:17.860Z,11.30
2022-12-22T11:19:52.350Z,11.30
2022-12-22T11:22:27.904Z,11.30
2022-12-22T11:25:13.421Z,11.40
2022-12-22T11:27:58.384Z,11.40
2022-12-22T11:30:34.514Z,11.40
2022-12-22T11:33:20.624Z,11.50
2022-12-22T11:35:50.198Z,11.60
2022-12-22T11:38:24.815Z,11.50
2022-12-22T11:40:55.763Z,11.60
2022-12-22T11:43:25.483Z,11.80
2022-12-22T11:45:59.329Z,11.80
2022-12-22T11:48:25.879Z,11.90
2022-12-22T11:51:08.047Z,11.90
2022-12-22T11:53:47.778Z,11.90
2022-12-22T11:56:18.470Z,11.90
2022-12-22T11:58:54.035Z,11.90
2022-12-22T12:01:26.188Z,11.90
2022-12-22T12:04:05.378Z,11.80
2022-12-22T12:06:50.730Z,11.80
2022-12-22T12:09:32.559Z,11.80
2022-12-22T12:12:02.317Z,11.80
2022-12-22T12:14:53.384Z,11.70
2022-12-22T12:17:38.517Z,11.80
2022-12-22T12:20:08.189Z,11.80
2022-12-22T12:22:34.663Z,11.80
2022-12-22T12:25:02.163Z,11.80
2022-12-22T12:27:31.833Z,11.80
2022-12-22T12:30:40.338Z,11.80
2022-12-22T12:33:06.944Z,11.80
2022-12-22T12:35:51.317Z,11.70
2022-12-22T12:38:56.725Z,11.70
2022-12-22T12:41:23.718Z,11.80
2022-12-22T12:43:52.044Z,11.80
2022-12-22T12:46:37.569Z,11.80
2022-12-22T12:49:04.178Z,11.80
2022-12-22T12:51:47.949Z,11.80
2022-12-22T12:54:35.547Z,11.80
2022-12-22T12:57:02.113Z,11.80
2022-12-22T12:59:40.698Z,11.80
2022-12-22T13:02:26.050Z,11.80
2022-12-22T13:05:08.146Z,11.80
2022-12-22T13:07:53.618Z,11.70
2022-12-22T13:10:23.200Z,11.80
2022-12-22T13:12:53.820Z,11.80
2022-12-22T13:15:26.432Z,11.80
2022-12-22T13:17:53.007Z,11.80
2022-12-22T13:20:33.387Z,11.70
2022-12-22T13:23:00.887Z,11.80
2022-12-22T13:25:36.402Z,11.70
2022-12-22T13:28:03.433Z,11.60
2022-12-22T13:30:30.356Z,11.70
2022-12-22T13:32:57.944Z,11.70
2022-12-22T13:35:42.966Z,11.60
2022-12-22T13:38:30.308Z,11.60
2022-12-22T13:40:58.321Z,11.60
2022-12-22T13:43:26.530Z,11.60
2022-12-22T13:45:54.788Z,11.50
2022-12-22T13:48:43.537Z,11.50
2022-12-22T13:51:20.394Z,11.60
2022-12-22T13:54:11.928Z,11.60
2022-12-22T13:56:39.272Z,11.50
2022-12-22T13:59:16.303Z,11.60
2022-12-22T14:01:50.130Z,11.50
2022-12-22T14:04:16.836Z,11.50
2022-12-22T14:06:43.411Z,11.50
2022-12-22T14:09:16.164Z,11.60
2022-12-22T14:11:50.683Z,11.40
2022-12-22T14:14:20.167Z,11.40
2022-12-22T14:16:47.888Z,11.30
2022-12-22T14:19:15.449Z,11.30
2022-12-22T14:21:43.026Z,11.20
2022-12-22T14:24:19.062Z,11.10
2022-12-22T14:26:45.780Z,11.10
2022-12-22T14:29:15.159Z,11.00
2022-12-22T14:31:58.137Z,11.00
2022-12-22T14:34:34.372Z,10.90
2022-12-22T14:37:01.694Z,10.90
2022-12-22T14:39:31.341Z,10.90
2022-12-22T14:42:02.427Z,10.80
2022-12-22T14:44:30.412Z,10.80
2022-12-22T14:47:12.312Z,10.70
2022-12-22T14:49:45.102Z,10.70
2022-12-22T14:52:17.665Z,10.70
2022-12-22T14:54:46.284Z,10.70
2022-12-22T14:57:16.969Z,10.80
2022-12-22T14:59:57.643Z,10.70
2022-12-22T15:02:32.192Z,10.80
2022-12-22T15:05:20.369Z,10.80
2022-12-22T15:10:42.580Z,10.80
2022-12-22T15:13:16.958Z,10.80
2022-12-22T15:15:44.089Z,10.70
2022-12-22T15:18:13.225Z,10.70
2022-12-22T15:20:39.907Z,10.70
2022-12-22T15:23:14.109Z,10.70
2022-12-22T15:25:40.701Z,10.70
2022-12-22T15:28:07.198Z,10.60
2022-12-22T15:30:33.918Z,10.60
2022-12-22T15:33:00.505Z,10.60
2022-12-22T15:35:34.244Z,10.50
2022-12-22T15:38:00.941Z,10.50
2022-12-22T15:40:27.916Z,10.50
2022-12-22T15:42:54.557Z,10.40
2022-12-22T15:45:22.079Z,10.40
2022-12-22T15:47:50.350Z,10.40
2022-12-22T15:50:18.695Z,10.30
2022-12-22T15:52:52.933Z,10.30
2022-12-22T15:55:20.119Z,10.30
2022-12-22T15:57:48.487Z,10.20
2022-12-22T16:00:15.365Z,10.20
2022-12-22T16:02:42.201Z,10.10
2022-12-22T16:05:09.488Z,10.10
2022-12-22T16:07:36.961Z,10.20
2022-12-22T16:10:04.191Z,10.20
2022-12-22T16:12:30.892Z,10.30
2022-12-22T16:14:58.718Z,10.20
2022-12-22T16:17:26.205Z,10.10
2022-12-22T16:19:52.821Z,10.00
2022-12-22T16:22:21.130Z,10.10
2022-12-22T16:24:48.853Z,10.00
2022-12-22T16:27:15.552Z,10.00
2022-12-22T16:29:43.758Z,10.20
2022-12-22T16:32:29.761Z,10.10
2022-12-22T16:34:59.588Z,10.10
2022-12-22T16:37:26.155Z,10.00
2022-12-22T16:39:52.621Z,10.00
2022-12-22T16:45:05.880Z,10.00
2022-12-22T16:47:33.608Z,10.00
2022-12-22T16:50:00.249Z,9.90
2022-12-22T16:52:30.941Z,10.00
2022-12-22T16:54:57.406Z,10.00
2022-12-22T16:57:23.869Z,9.90
2022-12-22T16:59:50.407Z,9.90
2022-12-22T17:02:29.208Z,9.90
2022-12-22T17:04:57.874Z,9.80
2022-12-22T17:07:24.430Z,9.80
2022-12-22T17:09:57.458Z,9.80
2022-12-22T17:12:28.307Z,9.80
2022-12-22T17:14:55.824Z,9.80
2022-12-22T17:17:30.942Z,9.80
2022-12-22T17:19:59.618Z,9.70
2022-12-22T17:22:27.931Z,9.70
2022-12-22T17:24:56.627Z,9.70
2022-12-22T17:27:25.851Z,9.70
2022-12-22T17:29:52.732Z,9.70
2022-12-22T17:32:20.862Z,9.70
2022-12-22T17:34:48.026Z,9.70
2022-12-22T17:37:15.526Z,9.70
2022-12-22T17:39:42.996Z,9.60
2022-12-22T17:42:15.768Z,9.70
2022-12-22T17:44:42.307Z,9.60
2022-12-22T17:47:11.857Z,9.50
2022-12-22T17:49:38.354Z,9.50
2022-12-22T17:52:05.061Z,9.50
2022-12-22T17:54:31.749Z,9.50
2022-12-22T17:57:01.127Z,9.50
2022-12-22T17:59:27.673Z,9.40
2022-12-22T18:01:54.241Z,9.40
2022-12-22T18:04:20.895Z,9.40
2022-12-22T18:06:47.658Z,9.40
2022-12-22T18:09:25.059Z,9.40
2022-12-22T18:11:51.886Z,9.40
2022-12-22T18:14:19.271Z,9.40
2022-12-22T18:16:45.832Z,9.50
2022-12-22T18:19:12.475Z,9.40
2022-12-22T18:21:39.064Z,9.40
2022-12-22T18:24:05.844Z,9.40
2022-12-22T18:26:32.489Z,9.40
2022-12-22T18:28:59.680Z,9.40
2022-12-22T18:31:26.378Z,9.40
2022-12-22T18:33:53.107Z,9.40
2022-12-22T18:36:23.547Z,9.40
2022-12-22T18:38:50.478Z,9.40
2022-12-22T18:41:19.835Z,9.40
2022-12-22T18:43:46.656Z,9.50
2022-12-22T18:46:13.371Z,9.50
2022-12-22T18:48:40.004Z,9.50
2022-12-22T18:51:12.188Z,9.50
2022-12-22T18:53:38.804Z,9.50
2022-12-22T18:56:05.463Z,9.50
2022-12-22T18:58:32.083Z,9.50
2022-12-22T19:00:58.760Z,9.40
2022-12-22T19:03:26.491Z,9.50
2022-12-22T19:05:53.173Z,9.40
2022-12-22T19:08:21.071Z,9.40
2022-12-22T19:10:49.286Z,9.50
2022-12-22T19:13:22.047Z,9.50
2022-12-22T19:15:48.858Z,9.50
2022-12-22T19:18:21.134Z,9.50
2022-12-22T19:20:51.239Z,9.50
2022-12-22T19:23:18.877Z,9.60
2022-12-22T19:25:46.573Z,9.60
2022-12-22T19:28:27.245Z,9.60
2022-12-22T19:30:54.732Z,9.70
2022-12-22T19:33:33.524Z,9.70
2022-12-22T19:36:01.097Z,9.80
2022-12-22T19:38:28.585Z,9.80
2022-12-22T19:40:57.676Z,9.80
2022-12-22T19:43:24.258Z,9.80
2022-12-22T19:45:51.887Z,9.90
2022-12-22T19:48:19.805Z,9.90
2022-12-22T19:50:47.105Z,9.90
2022-12-22T19:53:13.791Z,9.90
2022-12-22T19:55:41.987Z,10.00
2022-12-22T19:58:14.863Z,10.00
2022-12-22T20:00:41.430Z,10.00
2022-12-22T20:03:10.986Z,10.00
2022-12-22T20:05:38.106Z,9.90
2022-12-22T20:08:04.897Z,9.90
2022-12-22T20:10:32.420Z,9.90
2022-12-22T20:13:03.964Z,9.90
2022-12-22T20:15:33.139Z,9.90
2022-12-22T20:17:59.786Z,9.90
2022-12-22T20:20:29.570Z,9.90
2022-12-22T20:22:58.570Z,10.00
2022-12-22T20:25:27.125Z,10.00
2022-12-22T20:27:54.333Z,9.90
2022-12-22T20:30:24.258Z,9.90
2022-12-22T20:32:50.837Z,10.00
2022-12-22T20:35:18.429Z,10.00
2022-12-22T20:37:45.161Z,10.10
2022-12-22T20:40:25.440Z,10.10
2022-12-22T20:42:52.179Z,10.20
2022-12-22T20:45:21.145Z,10.10
2022-12-22T20:47:48.783Z,10.10
2022-12-22T20:50:29.152Z,10.20
2022-12-22T20:52:56.792Z,10.20
2022-12-22T20:55:26.024Z,10.30
2022-12-22T20:57:52.782Z,10.20
2022-12-22T21:00:23.191Z,10.20
2022-12-22T21:02:49.774Z,10.30
2022-12-22T21:05:16.976Z,10.20
2022-12-22T21:07:44.263Z,10.20
2022-12-22T21:10:14.847Z,10.30
2022-12-22T21:12:41.915Z,10.40
2022-12-22T21:15:09.398Z,10.30
2022-12-22T21:17:35.930Z,10.30
2022-12-22T21:20:02.472Z,10.30
2022-12-22T21:22:28.949Z,10.30
2022-12-22T21:24:55.435Z,10.30
2022-12-22T21:27:22.054Z,10.30
2022-12-22T21:29:48.652Z,10.40
2022-12-22T21:32:15.627Z,10.30
2022-12-22T21:34:42.216Z,10.40
2022-12-22T21:37:13.080Z,10.30
2022-12-22T21:39:41.784Z,10.30
2022-12-22T21:42:13.617Z,10.30
2022-12-22T21:44:40.169Z,10.30
2022-12-22T21:47:06.785Z,10.30
2022-12-22T21:49:33.632Z,10.30
2022-12-22T21:52:00.250Z,10.30
2022-12-22T21:54:26.884Z,10.30
2022-12-22T21:56:53.892Z,10.30
2022-12-22T21:59:20.896Z,10.30
2022-12-22T22:01:47.870Z,10.20
2022-12-22T22:04:14.527Z,10.10
2022-12-22T22:06:41.080Z,10.10
2022-12-22T22:09:07.708Z,10.20
2022-12-22T22:11:54.342Z,10.30
2022-12-22T22:14:21.252Z,10.20
2022-12-22T22:16:48.079Z,10.20
2022-12-22T22:19:14.591Z,10.20
2022-12-22T22:21:41.166Z,10.20
2022-12-22T22:24:07.676Z,10.20
2022-12-22T22:26:34.156Z,10.20
2022-12-22T22:29:00.628Z,10.10
2022-12-22T22:31:27.261Z,10.20
2022-12-22T22:33:54.044Z,10.10
2022-12-22T22:36:20.523Z,10.30
2022-12-22T22:38:50.029Z,10.30
2022-12-22T22:41:16.662Z,10.20
2022-12-22T22:43:43.116Z,10.20
2022-12-22T22:46:09.666Z,10.10
2022-12-22T22:48:36.525Z,10.10
2022-12-22T22:51:03.063Z,10.10
2022-12-22T22:53:30.639Z,10.10
2022-12-22T22:56:01.332Z,10.20
2022-12-22T22:58:28.247Z,10.10
2022-12-22T23:00:54.720Z,10.10
2022-12-22T23:03:21.362Z,10.10
2022-12-22T23:05:47.921Z,10.00
2022-12-22T23:08:14.463Z,10.00
2022-12-22T23:10:46.641Z,10.10
2022-12-22T23:13:13.135Z,10.00
2022-12-22T23:15:39.946Z,10.00
2022-12-22T23:18:06.487Z,10.00
2022-12-22T23:20:32.971Z,10.00
2022-12-22T23:22:59.440Z,10.00
2022-12-22T23:25:25.928Z,10.10
2022-12-22T23:27:52.484Z,10.00
2022-12-22T23:30:19.145Z,10.00
2022-12-22T23:32:45.676Z,10.00
2022-12-22T23:35:12.164Z,10.00
2022-12-22T23:37:38.677Z,10.00
2022-12-22T23:42:56.828Z,10.00
2022-12-22T23:45:23.932Z,10.00
2022-12-22T23:47:50.675Z,10.00
2022-12-22T23:50:17.210Z,9.90
2022-12-22T23:52:48.984Z,10.00
2022-12-22T23:55:16.050Z,10.00
2022-12-22T23:57:42.679Z,10.00
